Time;durP1;ratioP1;P1;durP2;ratioP2;P2;SDS_P1;SDS_P2;PMS_P1;PMS_P2;Temp;Humidity;BMP_temperature;BMP_pressure;BME280_temperature;BME280_humidity;BME280_pressure;Samples;Min_cycle;Max_cycle;Signal;HPM_P1;HPM_P2
2023/12/11 00:01:10;;;;;;;;;;;;;;;9.40;100.00;99924.06;5019247;28;19924;-63
2023/12/11 00:03:35;;;;;;;;;;;;;;;9.30;100.00;99909.28;5022545;28;20530;-63
2023/12/11 00:06:01;;;;;;;;;;;;;;;9.29;100.00;99920.09;5016628;28;19925;-63
2023/12/11 00:08:26;;;;;;;;;;;;;;;9.23;100.00;99910.19;5018869;28;19925;-63
2023/12/11 00:10:51;;;;;;;;;;;;;;;9.18;100.00;99907.28;5016030;28;20480;-63
2023/12/11 00:13:16;;;;;;;;;;;;;;;9.12;100.00;99914.16;5021121;28;19956;-64
2023/12/11 00:15:42;;;;;;;;;;;;;;;9.11;100.00;99917.81;5022012;28;19965;-63
2023/12/11 00:18:07;;;;;;;;;;;;;;;9.12;100.00;99903.56;5020713;28;20029;-63
2023/12/11 00:20:32;;;;;;;;;;;;;;;9.12;100.00;99903.56;5017722;28;20019;-63
2023/12/11 00:22:58;;;;;;;;;;;;;;;9.12;100.00;99902.72;5020250;28;20032;-63
2023/12/11 00:25:23;;;;;;;;;;;;;;;9.15;100.00;99905.81;5018452;28;20577;-63
2023/12/11 00:27:48;;;;;;;;;;;;;;;9.14;100.00;99909.47;5016432;28;19925;-63
2023/12/11 00:30:14;;;;;;;;;;;;;;;9.14;100.00;99906.00;5020071;28;20063;-64
2023/12/11 00:32:39;;;;;;;;;;;;;;;9.15;100.00;99895.22;5016040;28;20326;-63
2023/12/11 00:35:05;;;;;;;;;;;;;;;9.16;100.00;99888.09;5023048;28;19924;-63
2023/12/11 00:37:30;;;;;;;;;;;;;;;9.15;100.00;99886.47;5012653;28;19960;-63
2023/12/11 00:39:55;;;;;;;;;;;;;;;9.15;100.00;99892.59;5013582;28;19984;-64
2023/12/11 00:42:20;;;;;;;;;;;;;;;9.18;100.00;99888.75;5015546;28;19968;-63
2023/12/11 00:44:45;;;;;;;;;;;;;;;9.20;100.00;99886.72;5017644;28;20016;-63
2023/12/11 00:47:11;;;;;;;;;;;;;;;9.20;100.00;99882.25;5021696;28;19932;-63
2023/12/11 00:49:36;;;;;;;;;;;;;;;9.23;100.00;99881.06;5018693;28;20012;-63
2023/12/11 00:52:02;;;;;;;;;;;;;;;9.29;100.00;99870.56;5017944;28;19929;-63
2023/12/11 00:54:27;;;;;;;;;;;;;;;9.29;100.00;99867.09;5019801;28;19921;-63
2023/12/11 00:56:52;;;;;;;;;;;;;;;9.25;100.00;99871.94;5012406;28;19921;-64
2023/12/11 00:59:17;;;;;;;;;;;;;;;9.24;100.00;99872.91;5017515;28;20484;-63
2023/12/11 01:01:43;;;;;;;;;;;;;;;9.28;100.00;99868.91;5015558;28;19925;-63
2023/12/11 01:04:08;;;;;;;;;;;;;;;9.27;100.00;99875.22;5019189;28;19933;-63
2023/12/11 01:06:33;;;;;;;;;;;;;;;9.31;100.00;99875.69;5020002;28;19925;-63
2023/12/11 01:08:59;;;;;;;;;;;;;;;9.35;100.00;99881.41;5016779;28;20012;-63
2023/12/11 01:11:24;;;;;;;;;;;;;;;9.33;100.00;99876.31;5013052;28;20688;-64
2023/12/11 01:13:49;;;;;;;;;;;;;;;9.43;100.00;99868.06;5014118;28;19944;-63
2023/12/11 01:16:14;;;;;;;;;;;;;;;9.43;100.00;99870.69;5013762;28;19921;-64
2023/12/11 01:18:39;;;;;;;;;;;;;;;9.47;100.00;99866.66;5012281;28;19983;-64
2023/12/11 01:21:05;;;;;;;;;;;;;;;9.47;100.00;99867.47;5017593;28;19968;-63
2023/12/11 01:23:30;;;;;;;;;;;;;;;9.47;100.00;99858.72;5012404;28;19929;-63
2023/12/11 01:25:55;;;;;;;;;;;;;;;9.46;100.00;99868.50;5018482;28;19921;-63
2023/12/11 01:28:20;;;;;;;;;;;;;;;9.47;100.00;99864.84;5011839;28;19929;-64
2023/12/11 01:30:46;;;;;;;;;;;;;;;9.54;100.00;99862.25;5016471;28;19925;-63
2023/12/11 01:33:11;;;;;;;;;;;;;;;9.59;100.00;99854.59;5010697;28;19918;-63
2023/12/11 01:35:37;;;;;;;;;;;;;;;9.66;100.00;99844.03;5016411;28;19936;-63
2023/12/11 01:38:02;;;;;;;;;;;;;;;9.65;100.00;99861.78;5016990;28;19925;-63
2023/12/11 01:40:28;;;;;;;;;;;;;;;9.68;100.00;99847.31;5015475;28;19925;-63
2023/12/11 01:42:53;;;;;;;;;;;;;;;9.73;100.00;99842.25;5016360;28;19921;-63
2023/12/11 01:45:18;;;;;;;;;;;;;;;9.75;100.00;99838.41;5012072;28;19932;-63
2023/12/11 01:47:43;;;;;;;;;;;;;;;9.72;100.00;99838.78;5009774;28;20457;-63
2023/12/11 01:50:09;;;;;;;;;;;;;;;9.76;100.00;99833.94;5013632;28;20616;-63
2023/12/11 01:52:35;;;;;;;;;;;;;;;9.80;100.00;99832.53;5014040;28;19932;-63
2023/12/11 01:55:00;;;;;;;;;;;;;;;9.82;100.00;99831.34;5010559;28;19921;-63
2023/12/11 01:57:26;;;;;;;;;;;;;;;9.83;100.00;99829.50;5008240;28;19925;-63
2023/12/11 01:59:51;;;;;;;;;;;;;;;9.87;100.00;99821.00;5012733;28;19967;-63
2023/12/11 02:02:16;;;;;;;;;;;;;;;9.83;100.00;99805.63;5017998;28;19917;-64
2023/12/11 02:04:41;;;;;;;;;;;;;;;9.80;100.00;99819.28;5015883;28;20082;-63
2023/12/11 02:07:07;;;;;;;;;;;;;;;9.78;100.00;99808.88;5008705;28;20025;-63
2023/12/11 02:09:32;;;;;;;;;;;;;;;9.78;100.00;99797.44;5014008;28;19921;-63
2023/12/11 02:11:57;;;;;;;;;;;;;;;9.84;100.00;99802.00;5007246;28;19975;-63
2023/12/11 02:14:22;;;;;;;;;;;;;;;9.84;100.00;99799.34;5015351;28;20367;-63
2023/12/11 02:16:48;;;;;;;;;;;;;;;9.83;100.00;99798.53;5021455;28;19968;-64
2023/12/11 02:19:13;;;;;;;;;;;;;;;9.88;100.00;99788.16;5023070;28;19927;-63
2023/12/11 02:21:38;;;;;;;;;;;;;;;9.97;100.00;99782.72;5016357;28;19921;-63
2023/12/11 02:24:11;;;;;;;;;;;;;;;9.95;100.00;99782.91;5020901;28;19921;-64
2023/12/11 02:26:36;;;;;;;;;;;;;;;9.97;100.00;99786.19;5019841;28;19924;-63
2023/12/11 02:29:02;;;;;;;;;;;;;;;10.01;100.00;99776.81;5017105;28;19925;-63
2023/12/11 02:31:27;;;;;;;;;;;;;;;10.04;100.00;99776.44;5017580;28;20000;-63
2023/12/11 02:33:52;;;;;;;;;;;;;;;10.04;100.00;99784.41;5020009;28;19921;-63
2023/12/11 02:36:18;;;;;;;;;;;;;;;10.10;99.37;99762.41;5015013;28;19983;-63
2023/12/11 02:38:43;;;;;;;;;;;;;;;10.10;98.66;99770.34;5017948;28;19973;-64
2023/12/11 02:41:08;;;;;;;;;;;;;;;10.17;98.29;99776.53;5012038;28;19929;-64
2023/12/11 02:43:34;;;;;;;;;;;;;;;10.16;97.92;99764.28;5020124;28;20314;-63
2023/12/11 02:45:59;;;;;;;;;;;;;;;10.13;97.72;99746.13;5011536;28;21390;-63
2023/12/11 02:48:24;;;;;;;;;;;;;;;10.15;97.71;99748.56;5015594;28;19929;-64
2023/12/11 02:50:49;;;;;;;;;;;;;;;10.15;97.36;99761.84;5016163;28;20413;-63
2023/12/11 02:53:15;;;;;;;;;;;;;;;10.16;97.29;99740.41;5020961;28;20432;-63
2023/12/11 02:55:40;;;;;;;;;;;;;;;10.16;97.20;99756.34;5014483;28;19929;-63
2023/12/11 02:58:05;;;;;;;;;;;;;;;10.10;97.32;99749.13;5021738;28;20032;-63
2023/12/11 03:00:31;;;;;;;;;;;;;;;10.08;97.59;99740.53;5017042;28;19920;-63
2023/12/11 03:02:56;;;;;;;;;;;;;;;10.00;97.92;99743.34;5017181;28;19921;-63
2023/12/11 03:05:21;;;;;;;;;;;;;;;9.97;98.23;99733.13;5022369;28;19921;-63
2023/12/11 03:07:47;;;;;;;;;;;;;;;9.82;98.79;99725.28;5018052;28;19921;-63
2023/12/11 03:10:12;;;;;;;;;;;;;;;9.78;99.41;99726.66;5018406;28;19982;-63
2023/12/11 03:12:37;;;;;;;;;;;;;;;9.78;99.56;99728.50;5011402;28;20417;-63
2023/12/11 03:15:04;;;;;;;;;;;;;;;9.74;99.80;99735.22;5013815;28;19921;-63
2023/12/11 03:17:29;;;;;;;;;;;;;;;9.72;100.00;99729.28;5018289;28;19925;-63
2023/12/11 03:19:54;;;;;;;;;;;;;;;9.66;100.00;99725.56;5015059;28;19918;-64
2023/12/11 03:22:20;;;;;;;;;;;;;;;9.63;100.00;99715.34;5022777;28;20007;-63
2023/12/11 03:24:46;;;;;;;;;;;;;;;9.57;100.00;99719.59;5013491;28;19964;-63
2023/12/11 03:27:11;;;;;;;;;;;;;;;9.47;100.00;99702.38;5017942;28;20422;-63
2023/12/11 03:29:36;;;;;;;;;;;;;;;9.38;100.00;99709.63;5017200;28;19927;-64
2023/12/11 03:32:02;;;;;;;;;;;;;;;9.23;100.00;99695.63;5015609;28;19928;-64
2023/12/11 03:34:27;;;;;;;;;;;;;;;9.22;100.00;99696.63;5016261;28;19928;-63
2023/12/11 03:36:53;;;;;;;;;;;;;;;9.27;100.00;99699.56;5016355;28;19928;-63
2023/12/11 03:39:18;;;;;;;;;;;;;;;9.36;100.00;99687.81;5017305;28;19928;-63
2023/12/11 03:41:44;;;;;;;;;;;;;;;9.44;100.00;99698.25;5011293;28;19921;-63
2023/12/11 03:44:09;;;;;;;;;;;;;;;9.53;100.00;99686.50;5011799;28;20309;-64
2023/12/11 03:46:34;;;;;;;;;;;;;;;9.56;100.00;99691.44;5014712;28;19920;-64
2023/12/11 03:48:59;;;;;;;;;;;;;;;9.61;100.00;99697.00;5015592;28;20453;-63
2023/12/11 03:51:25;;;;;;;;;;;;;;;9.65;100.00;99683.34;5016469;28;20421;-63
2023/12/11 03:53:50;;;;;;;;;;;;;;;9.72;100.00;99697.47;5013278;28;20441;-63
2023/12/11 03:56:15;;;;;;;;;;;;;;;9.72;100.00;99702.78;5024442;28;20401;-63
2023/12/11 03:58:40;;;;;;;;;;;;;;;9.72;99.64;99723.97;5016563;28;19928;-63
2023/12/11 04:01:06;;;;;;;;;;;;;;;9.76;99.24;99709.31;5016215;28;19917;-63
2023/12/11 04:03:31;;;;;;;;;;;;;;;9.77;99.30;99703.81;5017499;28;19921;-63
2023/12/11 04:05:56;;;;;;;;;;;;;;;9.77;99.26;99695.03;5013893;28;19928;-63
2023/12/11 04:08:22;;;;;;;;;;;;;;;9.75;99.25;99716.44;5012907;28;19936;-64
2023/12/11 04:10:47;;;;;;;;;;;;;;;9.62;100.00;99717.19;5016167;28;19921;-63
2023/12/11 04:13:13;;;;;;;;;;;;;;;9.48;100.00;99707.47;5010839;28;19921;-63
2023/12/11 04:15:38;;;;;;;;;;;;;;;9.43;100.00;99709.88;5009778;28;19952;-62
2023/12/11 04:18:03;;;;;;;;;;;;;;;9.39;100.00;99705.97;5011375;28;19975;-63
2023/12/11 04:20:28;;;;;;;;;;;;;;;9.39;100.00;99708.63;5013301;28;19947;-63
2023/12/11 04:22:54;;;;;;;;;;;;;;;9.42;100.00;99718.84;5011746;28;20525;-63
2023/12/11 04:25:19;;;;;;;;;;;;;;;9.48;100.00;99715.41;5013956;28;19936;-63
2023/12/11 04:27:44;;;;;;;;;;;;;;;9.54;100.00;99696.13;5016786;28;19921;-63
2023/12/11 04:30:10;;;;;;;;;;;;;;;9.52;100.00;99679.56;5013253;28;19924;-63
2023/12/11 04:32:35;;;;;;;;;;;;;;;9.46;100.00;99690.94;5015635;28;19917;-63
2023/12/11 04:35:00;;;;;;;;;;;;;;;9.37;100.00;99700.03;5013746;28;19921;-63
2023/12/11 04:37:25;;;;;;;;;;;;;;;9.31;100.00;99682.28;5021882;28;19917;-63
2023/12/11 04:39:50;;;;;;;;;;;;;;;9.31;100.00;99685.75;5015728;28;19921;-63
2023/12/11 04:42:16;;;;;;;;;;;;;;;9.42;100.00;99700.28;5020302;28;19917;-63
2023/12/11 04:44:41;;;;;;;;;;;;;;;9.47;100.00;99676.69;5013093;28;19923;-63
2023/12/11 04:47:06;;;;;;;;;;;;;;;9.47;100.00;99684.63;5010186;28;20016;-64
2023/12/11 04:49:32;;;;;;;;;;;;;;;9.50;100.00;99686.06;5014185;28;19917;-63
2023/12/11 04:51:57;;;;;;;;;;;;;;;9.54;100.00;99708.53;5010313;28;20012;-60
2023/12/11 04:54:22;;;;;;;;;;;;;;;9.49;100.00;99687.91;5017424;28;19920;-61
2023/12/11 04:56:47;;;;;;;;;;;;;;;9.38;100.00;99669.06;5014216;28;19967;-61
2023/12/11 04:59:13;;;;;;;;;;;;;;;9.22;100.00;99681.56;5015392;28;20003;-61
2023/12/11 05:01:38;;;;;;;;;;;;;;;9.17;100.00;99678.66;5015557;28;20014;-61
2023/12/11 05:04:03;;;;;;;;;;;;;;;9.16;100.00;99682.31;5017076;28;19920;-61
2023/12/11 05:06:28;;;;;;;;;;;;;;;9.24;100.00;99678.72;5014261;28;19976;-62
2023/12/11 05:08:54;;;;;;;;;;;;;;;9.29;100.00;99676.34;5011066;28;19929;-61
2023/12/11 05:11:19;;;;;;;;;;;;;;;9.36;100.00;99687.81;5013941;28;20051;-62
2023/12/11 05:13:44;;;;;;;;;;;;;;;9.39;100.00;99687.44;5017470;28;20016;-61
2023/12/11 05:16:10;;;;;;;;;;;;;;;9.44;100.00;99687.66;5015441;28;19983;-61
2023/12/11 05:18:37;;;;;;;;;;;;;;;9.45;100.00;99673.41;5016202;28;19950;-61
2023/12/11 05:21:06;;;;;;;;;;;;;;;9.44;100.00;99692.97;5011820;28;19917;-62
2023/12/11 05:23:32;;;;;;;;;;;;;;;9.45;100.00;99685.84;5016124;28;19928;-61
2023/12/11 05:25:57;;;;;;;;;;;;;;;9.44;100.00;99689.50;5018933;28;19922;-63
2023/12/11 05:28:22;;;;;;;;;;;;;;;9.43;100.00;99691.31;5012156;28;19964;-63
2023/12/11 05:30:47;;;;;;;;;;;;;;;9.43;100.00;99701.09;5014289;28;19964;-63
2023/12/11 05:33:12;;;;;;;;;;;;;;;9.44;100.00;99684.19;5015726;28;19986;-63
2023/12/11 05:35:38;;;;;;;;;;;;;;;9.38;100.00;99693.75;5012602;28;19925;-63
2023/12/11 05:38:03;;;;;;;;;;;;;;;9.33;100.00;99685.53;5012560;28;21155;-63
2023/12/11 05:40:28;;;;;;;;;;;;;;;9.36;100.00;99687.00;5009661;28;19925;-64
2023/12/11 05:42:53;;;;;;;;;;;;;;;9.38;100.00;99669.06;5018986;28;19928;-63
2023/12/11 05:45:19;;;;;;;;;;;;;;;9.34;100.00;99671.28;5011618;28;20445;-63
2023/12/11 05:47:44;;;;;;;;;;;;;;;9.31;100.00;99669.03;5011834;28;20050;-63
2023/12/11 05:50:09;;;;;;;;;;;;;;;9.27;100.00;99673.06;5012578;28;19921;-64
2023/12/11 05:52:34;;;;;;;;;;;;;;;9.22;100.00;99678.09;5014144;28;20599;-63
2023/12/11 05:55:00;;;;;;;;;;;;;;;9.13;100.00;99664.16;5016211;28;19944;-63
2023/12/11 05:57:25;;;;;;;;;;;;;;;9.03;100.00;99668.16;5016693;28;19921;-64
2023/12/11 05:59:51;;;;;;;;;;;;;;;8.98;100.00;99674.84;5012199;28;19932;-63
2023/12/11 06:02:16;;;;;;;;;;;;;;;8.99;100.00;99651.81;5012103;28;19920;-63
2023/12/11 06:04:41;;;;;;;;;;;;;;;9.00;100.00;99664.06;5008450;28;20293;-63
2023/12/11 06:07:06;;;;;;;;;;;;;;;8.97;100.00;99659.97;5018835;28;20310;-63
2023/12/11 06:09:31;;;;;;;;;;;;;;;9.00;100.00;99679.94;5014575;28;19917;-62
2023/12/11 06:11:57;;;;;;;;;;;;;;;9.14;100.00;99657.84;5021781;28;19971;-63
2023/12/11 06:14:22;;;;;;;;;;;;;;;9.23;100.00;99671.78;5014184;28;19940;-63
2023/12/11 06:16:47;;;;;;;;;;;;;;;9.29;100.00;99677.16;5027595;28;19926;-63
2023/12/11 06:19:12;;;;;;;;;;;;;;;9.37;100.00;99665.59;5015429;28;19924;-63
2023/12/11 06:21:40;;;;;;;;;;;;;;;9.44;100.00;99663.81;5016346;28;20331;-63
2023/12/11 06:24:06;;;;;;;;;;;;;;;9.44;100.00;99668.31;5017383;28;19921;-63
2023/12/11 06:26:32;;;;;;;;;;;;;;;9.43;100.00;99671.97;5017794;28;19927;-63
2023/12/11 06:28:59;;;;;;;;;;;;;;;9.32;100.00;99668.84;5016407;28;19965;-63
2023/12/11 06:31:25;;;;;;;;;;;;;;;9.28;100.00;99664.09;5015868;28;19921;-63
2023/12/11 06:33:50;;;;;;;;;;;;;;;9.18;100.00;99672.34;5015551;28;19917;-63
2023/12/11 06:36:15;;;;;;;;;;;;;;;9.06;100.00;99667.78;5020377;28;19921;-63
2023/12/11 06:38:41;;;;;;;;;;;;;;;8.97;100.00;99678.50;5013326;28;19928;-63
2023/12/11 06:41:06;;;;;;;;;;;;;;;8.80;100.00;99679.72;5018485;28;19921;-63
2023/12/11 06:43:31;;;;;;;;;;;;;;;8.69;100.00;99682.88;5017900;28;20310;-63
2023/12/11 06:45:56;;;;;;;;;;;;;;;8.72;100.00;99694.91;5012107;28;19929;-64
2023/12/11 06:48:22;;;;;;;;;;;;;;;8.60;100.00;99718.38;5014195;28;19925;-63
2023/12/11 06:50:47;;;;;;;;;;;;;;;8.57;100.00;99681.69;5011991;28;19921;-63
2023/12/11 06:53:13;;;;;;;;;;;;;;;8.50;100.00;99697.50;5018932;28;19921;-63
2023/12/11 06:55:38;;;;;;;;;;;;;;;8.54;100.00;99697.97;5021602;28;19924;-63
2023/12/11 06:58:03;;;;;;;;;;;;;;;8.42;100.00;99678.28;5016482;28;19964;-63
2023/12/11 07:00:29;;;;;;;;;;;;;;;8.45;100.00;99689.31;5020624;28;20020;-63
2023/12/11 07:02:54;;;;;;;;;;;;;;;8.41;100.00;99706.56;5013382;28;19947;-63
2023/12/11 07:05:19;;;;;;;;;;;;;;;8.48;100.00;99688.94;5018969;28;19928;-63
2023/12/11 07:07:44;;;;;;;;;;;;;;;8.43;100.00;99687.84;5017078;28;19928;-63
2023/12/11 07:10:10;;;;;;;;;;;;;;;8.46;100.00;99706.00;5013974;28;19940;-64
2023/12/11 07:12:38;;;;;;;;;;;;;;;8.40;100.00;99712.84;5020086;28;19921;-62
2023/12/11 07:15:04;;;;;;;;;;;;;;;8.40;100.00;99707.56;5015346;28;20344;-63
2023/12/11 07:17:30;;;;;;;;;;;;;;;8.34;100.00;99701.16;5015973;28;20393;-63
2023/12/11 07:19:55;;;;;;;;;;;;;;;8.34;100.00;99724.16;5016182;28;19921;-63
2023/12/11 07:22:21;;;;;;;;;;;;;;;8.40;100.00;99723.44;5018498;28;19924;-63
2023/12/11 07:24:47;;;;;;;;;;;;;;;8.45;100.00;99709.66;5015304;28;19928;-63
2023/12/11 07:27:12;;;;;;;;;;;;;;;8.52;100.00;99705.25;5020518;28;19928;-63
2023/12/11 07:29:37;;;;;;;;;;;;;;;8.58;100.00;99726.50;5019582;28;20031;-63
2023/12/11 07:32:02;;;;;;;;;;;;;;;8.67;100.00;99736.00;5018857;28;19928;-63
2023/12/11 07:34:28;;;;;;;;;;;;;;;8.67;100.00;99737.78;5022175;28;20342;-63
2023/12/11 07:36:54;;;;;;;;;;;;;;;8.73;100.00;99728.31;5023347;28;19925;-63
2023/12/11 07:39:20;;;;;;;;;;;;;;;8.90;100.00;99749.06;5022062;28;19928;-63
2023/12/11 07:41:45;;;;;;;;;;;;;;;9.07;100.00;99747.03;5012663;28;19953;-63
2023/12/11 07:44:10;;;;;;;;;;;;;;;9.16;100.00;99750.38;5019156;28;19917;-63
2023/12/11 07:46:35;;;;;;;;;;;;;;;9.08;100.00;99748.66;5018266;28;19963;-63
2023/12/11 07:49:01;;;;;;;;;;;;;;;9.08;100.00;99756.63;5014474;28;19929;-63
2023/12/11 07:51:28;;;;;;;;;;;;;;;9.06;100.00;99747.22;5027483;28;19921;-63
2023/12/11 07:53:55;;;;;;;;;;;;;;;9.13;100.00;99745.44;5020301;28;19935;-63
2023/12/11 07:56:21;;;;;;;;;;;;;;;9.06;100.00;99790.41;5016099;28;19917;-63
2023/12/11 07:58:47;;;;;;;;;;;;;;;9.06;100.00;99781.66;5016524;28;19917;-63
2023/12/11 08:01:12;;;;;;;;;;;;;;;8.98;100.00;99770.16;5013529;28;19940;-63
2023/12/11 08:03:37;;;;;;;;;;;;;;;8.84;100.00;99768.34;5020860;28;19921;-63
2023/12/11 08:06:02;;;;;;;;;;;;;;;8.75;100.00;99806.53;5015020;28;19967;-63
2023/12/11 08:08:28;;;;;;;;;;;;;;;8.73;100.00;99786.53;5021181;28;19986;-63
2023/12/11 08:10:53;;;;;;;;;;;;;;;8.71;100.00;99794.69;5014954;28;20409;-63
2023/12/11 08:13:19;;;;;;;;;;;;;;;8.69;100.00;99809.91;5017453;28;19925;-63
2023/12/11 08:15:45;;;;;;;;;;;;;;;8.64;100.00;99817.56;5017154;28;19929;-63
2023/12/11 08:18:10;;;;;;;;;;;;;;;8.57;100.00;99830.72;5015759;28;20477;-63
2023/12/11 08:20:35;;;;;;;;;;;;;;;8.50;100.00;99821.03;5016351;28;19964;-63
2023/12/11 08:23:00;;;;;;;;;;;;;;;8.42;100.00;99840.47;5019027;28;19957;-63
2023/12/11 08:25:26;;;;;;;;;;;;;;;8.35;100.00;99842.19;5015637;28;19964;-64
2023/12/11 08:27:51;;;;;;;;;;;;;;;8.35;100.00;99827.13;5014440;28;19921;-63
2023/12/11 08:30:16;;;;;;;;;;;;;;;8.42;100.00;99858.19;5013947;28;19956;-64
2023/12/11 08:32:42;;;;;;;;;;;;;;;8.42;100.00;99869.59;5028315;28;19917;-64
2023/12/11 08:35:08;;;;;;;;;;;;;;;8.43;100.00;99847.41;5016809;28;20039;-64
2023/12/11 08:37:33;;;;;;;;;;;;;;;8.41;100.00;99856.53;5020081;28;19990;-63
2023/12/11 08:39:58;;;;;;;;;;;;;;;8.46;100.00;99859.47;5014378;28;19968;-64
2023/12/11 08:42:23;;;;;;;;;;;;;;;8.68;100.00;99869.16;5009625;28;19924;-64
2023/12/11 08:44:49;;;;;;;;;;;;;;;8.76;100.00;99861.13;5013620;28;19932;-64
2023/12/11 08:47:14;;;;;;;;;;;;;;;8.84;100.00;99865.50;5011839;28;19948;-63
2023/12/11 08:49:39;;;;;;;;;;;;;;;8.96;100.00;99872.81;5009194;28;19937;-63
2023/12/11 08:52:04;;;;;;;;;;;;;;;9.12;100.00;99886.84;5012088;28;19921;-63
2023/12/11 08:54:30;;;;;;;;;;;;;;;9.17;100.00;99905.63;5019667;28;20427;-63
2023/12/11 08:56:55;;;;;;;;;;;;;;;9.24;100.00;99880.03;5018336;28;19925;-63
2023/12/11 08:59:20;;;;;;;;;;;;;;;9.28;100.00;99897.25;5015989;28;20404;-63
2023/12/11 09:01:46;;;;;;;;;;;;;;;9.28;100.00;99887.47;5013526;28;20353;-63
2023/12/11 09:04:11;;;;;;;;;;;;;;;9.34;100.00;99917.69;5021618;28;20394;-63
2023/12/11 09:06:37;;;;;;;;;;;;;;;9.38;100.00;99918.13;5020395;28;20401;-63
2023/12/11 09:09:02;;;;;;;;;;;;;;;9.40;100.00;99919.59;5020289;28;19929;-63
2023/12/11 09:11:28;;;;;;;;;;;;;;;9.40;100.00;99921.44;5014891;28;19921;-64
2023/12/11 09:13:53;;;;;;;;;;;;;;;9.44;100.00;99942.06;5009884;28;19967;-63
2023/12/11 09:16:18;;;;;;;;;;;;;;;9.42;100.00;99946.72;5017420;28;19921;-63
2023/12/11 09:18:43;;;;;;;;;;;;;;;9.43;100.00;99953.66;5016181;28;19924;-63
2023/12/11 09:21:09;;;;;;;;;;;;;;;9.42;100.00;99959.16;5023932;28;19920;-64
2023/12/11 09:23:34;;;;;;;;;;;;;;;9.42;100.00;99959.97;5022420;28;19925;-63
2023/12/11 09:26:00;;;;;;;;;;;;;;;9.36;100.00;99967.84;5022561;28;19925;-63
2023/12/11 09:28:25;;;;;;;;;;;;;;;9.39;100.00;99978.06;5022517;28;20394;-63
2023/12/11 09:30:51;;;;;;;;;;;;;;;9.45;100.00;99998.53;5022187;28;19917;-64
2023/12/11 09:33:16;;;;;;;;;;;;;;;9.43;100.00;100004.03;5021662;28;19931;-63
2023/12/11 09:35:41;;;;;;;;;;;;;;;9.27;100.00;99997.09;5023110;28;19967;-63
2023/12/11 09:38:07;;;;;;;;;;;;;;;9.26;100.00;100013.19;5021207;28;19921;-63
2023/12/11 09:40:32;;;;;;;;;;;;;;;9.13;100.00;100027.03;5022056;28;20298;-63
2023/12/11 09:43:00;;;;;;;;;;;;;;;9.01;100.00;100017.91;5013171;28;19928;-63
2023/12/11 09:45:26;;;;;;;;;;;;;;;8.87;100.00;100022.16;5020399;28;20006;-64
2023/12/11 09:47:52;;;;;;;;;;;;;;;8.72;100.00;100031.06;5014477;28;19965;-63
2023/12/11 09:50:19;;;;;;;;;;;;;;;8.65;100.00;100037.06;5014885;28;19921;-64
2023/12/11 09:52:44;;;;;;;;;;;;;;;8.61;100.00;100050.81;5012118;28;20027;-63
2023/12/11 09:55:10;;;;;;;;;;;;;;;8.54;100.00;100060.47;5020836;28;20007;-63
2023/12/11 09:57:36;;;;;;;;;;;;;;;8.50;100.00;100056.53;5018218;28;20010;-64
2023/12/11 10:00:03;;;;;;;;;;;;;;;8.50;100.00;100057.38;5015222;28;19917;-64
2023/12/11 10:02:28;;;;;;;;;;;;;;;8.43;100.00;100066.19;5015000;28;20074;-64
2023/12/11 10:05:00;;;;;;;;;;;;;;;8.46;100.00;100066.66;5015452;28;20441;-64
2023/12/11 10:07:25;;;;;;;;;;;;;;;8.48;100.00;100064.66;5019136;28;19925;-64
2023/12/11 10:09:50;;;;;;;;;;;;;;;8.36;100.00;100072.16;5016708;28;19991;-64
2023/12/11 10:12:15;;;;;;;;;;;;;;;8.39;100.00;100084.25;5018782;28;19925;-64
2023/12/11 10:14:41;;;;;;;;;;;;;;;8.40;100.00;100091.19;5022815;28;19917;-64
2023/12/11 10:17:15;;;;;;;;;;;;;;;8.33;100.00;100082.22;5011998;28;19913;-64
2023/12/11 10:19:41;;;;;;;;;;;;;;;8.28;100.00;100084.59;5018028;28;19917;-64
2023/12/11 10:22:06;;;;;;;;;;;;;;;8.31;100.00;100084.22;5016933;28;19917;-64
2023/12/11 10:24:31;;;;;;;;;;;;;;;8.32;100.00;100099.09;5013630;28;19921;-64
2023/12/11 10:26:57;;;;;;;;;;;;;;;8.22;100.00;100095.88;5015574;28;20058;-64
2023/12/11 10:29:24;;;;;;;;;;;;;;;8.18;100.00;100100.69;5017710;28;19964;-63
2023/12/11 10:31:50;;;;;;;;;;;;;;;8.18;100.00;100115.72;5012192;28;19943;-64
2023/12/11 10:34:15;;;;;;;;;;;;;;;8.11;100.00;100123.53;5019916;28;20404;-63
2023/12/11 10:36:52;;;;;;;;;;;;;;;8.08;100.00;100116.75;5019778;28;19917;-64
2023/12/11 10:39:19;;;;;;;;;;;;;;;8.07;100.00;100111.63;5014315;28;19965;-64
2023/12/11 10:41:45;;;;;;;;;;;;;;;8.01;100.00;100121.06;5016079;28;19921;-63
2023/12/11 10:44:26;;;;;;;;;;;;;;;8.03;100.00;100140.22;5012145;28;19927;-64
2023/12/11 10:46:53;;;;;;;;;;;;;;;8.09;100.00;100141.38;5011196;28;19987;-63
2023/12/11 10:49:19;;;;;;;;;;;;;;;8.08;100.00;100148.47;5013666;28;19925;-62
2023/12/11 10:51:45;;;;;;;;;;;;;;;8.08;100.00;100135.25;5010591;28;20761;-62
2023/12/11 10:54:10;;;;;;;;;;;;;;;8.06;100.00;100145.19;5014763;28;19925;-62
2023/12/11 10:56:35;;;;;;;;;;;;;;;8.05;100.00;100155.94;5012631;28;20000;-62
2023/12/11 10:59:01;;;;;;;;;;;;;;;8.16;100.00;100154.75;5012310;28;20256;-62
2023/12/11 11:01:27;;;;;;;;;;;;;;;8.12;100.00;100158.75;5014399;28;19924;-62
2023/12/11 11:03:52;;;;;;;;;;;;;;;8.13;100.00;100166.50;5015669;28;19971;-62
2023/12/11 11:06:18;;;;;;;;;;;;;;;8.17;100.00;100181.03;5020227;28;20724;-62
2023/12/11 11:08:54;;;;;;;;;;;;;;;8.17;100.00;100178.38;5018616;28;20051;-61
2023/12/11 11:11:27;;;;;;;;;;;;;;;8.16;100.00;100191.78;5020084;28;19925;-62
2023/12/11 11:14:14;;;;;;;;;;;;;;;8.17;100.00;100188.97;5019680;28;19919;-61
2023/12/11 11:16:50;;;;;;;;;;;;;;;8.17;100.00;100193.41;5019814;28;19928;-61
2023/12/11 11:19:16;;;;;;;;;;;;;;;8.17;100.00;100183.66;5016270;28;19995;-62
2023/12/11 11:21:57;;;;;;;;;;;;;;;8.15;100.00;100188.31;5020379;28;19991;-62
2023/12/11 11:24:26;;;;;;;;;;;;;;;8.22;100.00;100186.63;5015099;28;19924;-61
2023/12/11 11:26:51;;;;;;;;;;;;;;;8.24;100.00;100200.50;5020540;28;19921;-61
2023/12/11 11:29:36;;;;;;;;;;;;;;;8.24;100.00;100192.56;5018869;28;20401;-62
2023/12/11 11:32:02;;;;;;;;;;;;;;;8.25;100.00;100196.03;5018691;28;19956;-62
2023/12/11 11:34:47;;;;;;;;;;;;;;;8.31;100.00;100204.09;5019245;28;20390;-62
2023/12/11 11:37:20;;;;;;;;;;;;;;;8.27;100.00;100213.38;5017950;28;19933;-62
2023/12/11 11:39:58;;;;;;;;;;;;;;;8.36;100.00;100224.78;5019776;28;19920;-62
2023/12/11 11:42:23;;;;;;;;;;;;;;;8.41;100.00;100214.53;5017501;28;19920;-62
2023/12/11 11:44:58;;;;;;;;;;;;;;;8.46;100.00;100221.94;5015164;28;20473;-62
2023/12/11 11:47:27;;;;;;;;;;;;;;;8.57;100.00;100222.38;5014143;28;19925;-62
2023/12/11 11:49:55;;;;;;;;;;;;;;;8.53;100.00;100214.97;5015144;28;19917;-62
2023/12/11 11:52:30;;;;;;;;;;;;;;;8.60;100.00;100224.69;5014235;28;19929;-61
2023/12/11 11:54:59;;;;;;;;;;;;;;;8.54;100.00;100228.03;5020838;28;19921;-62
2023/12/11 11:57:30;;;;;;;;;;;;;;;8.57;100.00;100226.84;5018377;28;20345;-61
2023/12/11 11:59:55;;;;;;;;;;;;;;;8.58;100.00;100229.31;5013388;28;19948;-62
2023/12/11 12:02:24;;;;;;;;;;;;;;;8.51;100.00;100228.38;5019267;28;20422;-62
2023/12/11 12:04:49;;;;;;;;;;;;;;;8.52;100.00;100242.41;5016912;28;19999;-62
2023/12/11 12:07:15;;;;;;;;;;;;;;;8.59;100.00;100246.84;5016777;28;19921;-61
2023/12/11 12:09:40;;;;;;;;;;;;;;;8.55;100.00;100252.66;5025987;28;20011;-61
2023/12/11 12:12:06;;;;;;;;;;;;;;;8.58;100.00;100253.13;5015988;28;20059;-62
2023/12/11 12:14:31;;;;;;;;;;;;;;;8.62;100.00;100266.84;5018314;28;19937;-61
2023/12/11 12:16:57;;;;;;;;;;;;;;;8.57;100.00;100259.44;5013344;28;20016;-62
2023/12/11 12:19:32;;;;;;;;;;;;;;;8.52;100.00;100267.06;5018876;28;19964;-61
2023/12/11 12:21:58;;;;;;;;;;;;;;;8.48;100.00;100276.34;5012349;28;19928;-62
2023/12/11 12:24:24;;;;;;;;;;;;;;;8.53;100.00;100255.47;5015715;28;20000;-62
2023/12/11 12:26:54;;;;;;;;;;;;;;;8.52;100.00;100264.41;5018650;28;20035;-62
2023/12/11 12:29:20;;;;;;;;;;;;;;;8.53;100.00;100263.41;5019426;28;19991;-62
2023/12/11 12:31:45;;;;;;;;;;;;;;;8.58;100.00;100262.91;5017748;28;19921;-62
2023/12/11 12:34:11;;;;;;;;;;;;;;;8.61;100.00;100268.66;5015276;28;20032;-62
2023/12/11 12:36:37;;;;;;;;;;;;;;;8.66;100.00;100279.56;5013500;28;19971;-64
2023/12/11 12:39:04;;;;;;;;;;;;;;;8.73;100.00;100273.59;5016548;28;19921;-64